createdAt,value
2019-02-21T00:00:44.288Z,98.63
2019-02-21T00:03:14.779Z,96.17
2019-02-21T00:05:45.244Z,104.17
2019-02-21T00:08:15.646Z,105.27
2019-02-21T00:10:47.570Z,95.93
2019-02-21T00:13:17.972Z,100.40
2019-02-21T00:15:48.501Z,92.10
2019-02-21T00:18:19.878Z,101.07
2019-02-21T00:20:50.284Z,103.53
2019-02-21T00:23:20.855Z,105.10
2019-02-21T00:25:51.329Z,105.90
2019-02-21T00:28:21.783Z,111.17
2019-02-21T00:30:52.137Z,105.43
2019-02-21T00:33:22.618Z,99.57
2019-02-21T00:35:53.056Z,92.67
2019-02-21T00:38:23.466Z,97.23
2019-02-21T00:40:53.872Z,97.73
2019-02-21T00:43:24.271Z,89.50
2019-02-21T00:45:54.720Z,90.07
2019-02-21T00:48:25.085Z,93.97
2019-02-21T00:50:55.503Z,97.13
2019-02-21T00:53:25.890Z,85.00
2019-02-21T00:55:56.274Z,91.07
2019-02-21T00:58:26.724Z,84.77
2019-02-21T01:00:59.355Z,85.13
2019-02-21T01:03:29.802Z,102.32
2019-02-21T01:06:00.265Z,90.40
2019-02-21T01:08:30.693Z,92.47
2019-02-21T01:11:01.139Z,94.47
2019-02-21T01:13:33.917Z,96.03
2019-02-21T01:16:04.439Z,101.97
2019-02-21T01:18:34.955Z,106.70
2019-02-21T01:21:05.487Z,98.00
2019-02-21T01:23:35.824Z,98.27
2019-02-21T01:26:06.270Z,99.17
2019-02-21T01:28:36.762Z,105.20
2019-02-21T01:31:07.166Z,102.90
2019-02-21T01:33:37.598Z,102.00
2019-02-21T01:36:07.968Z,95.03
2019-02-21T01:38:38.444Z,91.20
2019-02-21T01:41:08.896Z,93.67
2019-02-21T01:43:39.427Z,88.70
2019-02-21T01:46:11.624Z,84.23
2019-02-21T01:48:42.217Z,81.87
2019-02-21T01:51:12.615Z,82.03
2019-02-21T01:53:43.095Z,79.10
2019-02-21T01:56:13.523Z,80.23
2019-02-21T01:58:44.004Z,78.47
2019-02-21T02:01:14.964Z,79.07
2019-02-21T02:03:45.455Z,82.17
2019-02-21T02:06:15.845Z,76.87
2019-02-21T02:08:46.333Z,78.37
2019-02-21T02:11:16.677Z,82.90
2019-02-21T02:13:47.249Z,81.80
2019-02-21T02:16:17.665Z,78.53
2019-02-21T02:18:48.254Z,85.47
2019-02-21T02:21:18.650Z,88.83
2019-02-21T02:23:49.080Z,87.50
2019-02-21T02:26:19.478Z,80.40
2019-02-21T02:28:49.884Z,75.83
2019-02-21T02:31:23.419Z,72.10
2019-02-21T02:33:52.259Z,71.50
2019-02-21T02:36:22.644Z,72.73
2019-02-21T02:38:53.133Z,70.60
2019-02-21T02:41:23.523Z,69.40
2019-02-21T02:43:53.943Z,72.17
2019-02-21T02:46:24.346Z,66.30
2019-02-21T02:48:54.725Z,69.67
2019-02-21T02:51:25.080Z,61.93
2019-02-21T02:53:55.507Z,69.10
2019-02-21T02:56:25.978Z,63.80
2019-02-21T02:58:58.166Z,66.23
2019-02-21T03:01:34.878Z,63.27
2019-02-21T03:04:00.630Z,62.20
2019-02-21T03:06:31.160Z,62.93
2019-02-21T03:09:04.122Z,63.27
2019-02-21T03:11:34.583Z,58.73
2019-02-21T03:14:08.141Z,62.00
2019-02-21T03:16:38.617Z,55.17
2019-02-21T03:19:09.091Z,59.33
2019-02-21T03:21:39.506Z,59.80
2019-02-21T03:24:09.994Z,61.43
2019-02-21T03:26:40.412Z,59.70
2019-02-21T03:29:10.822Z,59.63
2019-02-21T03:31:53.289Z,59.37
2019-02-21T03:34:13.414Z,56.50
2019-02-21T03:36:43.763Z,71.17
2019-02-21T03:39:14.267Z,69.07
2019-02-21T03:41:44.669Z,85.67
2019-02-21T03:44:15.149Z,76.70
2019-02-21T03:46:45.586Z,76.57
2019-02-21T03:49:16.051Z,79.50
2019-02-21T03:51:46.469Z,71.47
2019-02-21T03:54:16.922Z,66.97
2019-02-21T03:56:47.303Z,68.28
2019-02-21T03:59:20.250Z,58.47
2019-02-21T04:01:49.840Z,57.90
2019-02-21T04:04:20.217Z,56.70
2019-02-21T04:06:50.641Z,52.77
2019-02-21T04:09:22.343Z,52.17
2019-02-21T04:11:52.773Z,51.67
2019-02-21T04:14:23.297Z,55.63
2019-02-21T04:16:53.809Z,60.73
2019-02-21T04:19:26.684Z,57.90
2019-02-21T04:21:57.120Z,61.93
2019-02-21T04:24:27.613Z,59.20
2019-02-21T04:26:58.162Z,61.50
2019-02-21T04:29:30.119Z,61.73
2019-02-21T04:32:00.535Z,57.53
2019-02-21T04:34:30.894Z,51.37
2019-02-21T04:37:01.306Z,51.40
2019-02-21T04:39:31.660Z,47.60
2019-02-21T04:42:02.152Z,42.33
2019-02-21T04:44:37.805Z,47.00
2019-02-21T04:47:11.448Z,43.97
2019-02-21T04:49:43.092Z,42.47
2019-02-21T04:52:13.710Z,42.40
2019-02-21T04:54:52.899Z,43.10
2019-02-21T04:57:27.200Z,41.50
2019-02-21T04:59:57.719Z,42.63
2019-02-21T05:02:29.514Z,40.93
2019-02-21T05:05:10.508Z,38.63
2019-02-21T05:07:41.012Z,41.03
2019-02-21T05:10:11.411Z,41.30
2019-02-21T05:12:41.949Z,41.30
2019-02-21T05:15:14.049Z,38.70
2019-02-21T05:17:45.840Z,38.43
2019-02-21T05:20:16.284Z,39.00
2019-02-21T05:22:46.774Z,38.23
2019-02-21T05:25:18.636Z,38.20
2019-02-21T05:27:56.730Z,37.83
2019-02-21T05:30:27.370Z,38.23
2019-02-21T05:33:02.339Z,39.37
2019-02-21T05:35:40.596Z,39.03
2019-02-21T05:38:21.469Z,43.63
2019-02-21T05:41:11.823Z,39.07
2019-02-21T05:43:45.264Z,41.00
2019-02-21T05:46:31.879Z,39.00
2019-02-21T05:49:06.716Z,37.70
2019-02-21T05:51:38.708Z,39.10
2019-02-21T05:54:16.659Z,38.97
2019-02-21T05:56:48.818Z,37.80
2019-02-21T05:59:33.623Z,36.60
2019-02-21T06:05:24.096Z,39.67
2019-02-21T06:07:57.167Z,35.90
2019-02-21T06:10:47.183Z,40.07
2019-02-21T06:13:24.914Z,35.67
2019-02-21T06:16:06.317Z,32.97
2019-02-21T06:18:51.097Z,34.53
2019-02-21T06:21:31.691Z,33.50
2019-02-21T06:24:12.978Z,36.53
2019-02-21T06:26:54.484Z,36.30
2019-02-21T06:29:34.184Z,33.97
2019-02-21T06:32:13.888Z,32.80
2019-02-21T06:34:36.844Z,37.37
2019-02-21T06:37:07.330Z,34.57
2019-02-21T06:39:37.749Z,33.40
2019-02-21T06:42:08.300Z,34.60
2019-02-21T06:44:39.006Z,34.10
2019-02-21T06:47:09.441Z,34.10
2019-02-21T06:49:46.986Z,32.37
2019-02-21T06:52:17.457Z,38.10
2019-02-21T06:54:48.056Z,36.93
2019-02-21T06:57:19.874Z,34.20
2019-02-21T06:59:52.225Z,35.38
2019-02-21T07:02:22.652Z,29.60
2019-02-21T07:04:53.074Z,31.07
2019-02-21T07:07:23.886Z,32.53
2019-02-21T07:09:58.596Z,33.93
2019-02-21T07:12:29.245Z,31.13
2019-02-21T07:15:05.984Z,30.50
2019-02-21T07:17:36.618Z,30.77
2019-02-21T07:20:08.618Z,33.27
2019-02-21T07:22:39.298Z,32.87
2019-02-21T07:25:27.936Z,28.07
2019-02-21T07:28:10.967Z,26.27
2019-02-21T07:30:34.911Z,28.73
2019-02-21T07:33:05.337Z,34.80
2019-02-21T07:35:36.945Z,33.90
2019-02-21T07:38:07.501Z,29.03
2019-02-21T07:40:37.898Z,23.80
2019-02-21T07:43:12.591Z,29.77
2019-02-21T07:45:44.131Z,31.47
2019-02-21T07:48:14.316Z,34.83
2019-02-21T07:50:44.941Z,26.67
2019-02-21T07:53:15.985Z,27.33
2019-02-21T07:55:46.442Z,25.87
2019-02-21T07:58:16.996Z,27.83
2019-02-21T08:00:47.389Z,34.07
2019-02-21T08:03:29.906Z,23.43
2019-02-21T08:05:51.578Z,23.50
2019-02-21T08:08:22.126Z,23.67
2019-02-21T08:10:52.540Z,25.00
2019-02-21T08:13:23.173Z,25.90
2019-02-21T08:15:53.890Z,22.47
2019-02-21T08:18:24.862Z,29.80
2019-02-21T08:20:55.882Z,31.67
2019-02-21T08:23:26.349Z,20.83
2019-02-21T08:25:56.777Z,41.10
2019-02-21T08:28:28.312Z,23.80
2019-02-21T08:30:58.948Z,29.27
2019-02-21T08:33:31.032Z,23.67
2019-02-21T08:36:01.514Z,26.87
2019-02-21T08:38:31.971Z,16.97
2019-02-21T08:41:04.896Z,19.17
2019-02-21T08:43:37.278Z,20.83
2019-02-21T08:46:08.191Z,21.23
2019-02-21T08:48:40.539Z,20.37
2019-02-21T08:51:10.838Z,17.80
2019-02-21T08:53:41.359Z,20.97
2019-02-21T08:56:12.422Z,21.10
2019-02-21T08:58:45.190Z,10.33
2019-02-21T09:01:16.454Z,20.83
2019-02-21T09:03:46.897Z,22.00
2019-02-21T09:06:17.501Z,10.40
2019-02-21T09:08:49.258Z,10.13
2019-02-21T09:11:19.908Z,10.97
2019-02-21T09:13:50.360Z,18.83
2019-02-21T09:16:20.817Z,25.23
2019-02-21T09:18:51.205Z,17.07
2019-02-21T09:21:21.627Z,10.90
2019-02-21T09:23:52.083Z,10.33
2019-02-21T09:26:22.486Z,9.40
2019-02-21T09:28:52.977Z,11.73
2019-02-21T09:31:23.420Z,7.67
2019-02-21T09:33:54.092Z,7.00
2019-02-21T09:36:24.446Z,13.60
2019-02-21T09:38:54.904Z,36.10
2019-02-21T09:41:29.094Z,16.50
2019-02-21T09:44:10.162Z,14.10
2019-02-21T09:46:40.677Z,14.97
2019-02-21T09:49:11.049Z,5.97
2019-02-21T09:51:43.199Z,10.33
2019-02-21T09:54:13.761Z,10.03
2019-02-21T09:56:52.388Z,19.13
2019-02-21T09:59:16.269Z,15.97
2019-02-21T10:01:46.751Z,8.73
2019-02-21T10:04:17.245Z,8.40
2019-02-21T10:06:47.694Z,6.13
2019-02-21T10:09:18.169Z,6.70
2019-02-21T10:11:48.698Z,10.27
2019-02-21T10:14:21.447Z,4.73
2019-02-21T10:16:51.287Z,4.00
2019-02-21T10:19:21.687Z,7.43
2019-02-21T10:21:52.095Z,6.20
2019-02-21T10:24:22.557Z,5.77
2019-02-21T10:26:52.960Z,8.33
2019-02-21T10:29:23.588Z,10.50
2019-02-21T10:31:54.081Z,8.23
2019-02-21T10:34:24.507Z,9.93
2019-02-21T10:36:54.922Z,9.40
2019-02-21T10:39:26.653Z,9.70
2019-02-21T10:41:57.184Z,9.93
2019-02-21T10:44:27.614Z,17.33
2019-02-21T10:46:58.034Z,11.55
2019-02-21T10:49:28.462Z,11.13
2019-02-21T10:51:58.854Z,11.40
2019-02-21T10:54:29.325Z,9.95
2019-02-21T10:56:59.825Z,9.17
2019-02-21T10:59:30.369Z,8.07
2019-02-21T11:02:00.925Z,14.63
2019-02-21T11:04:31.495Z,12.30
2019-02-21T11:07:01.896Z,17.87
2019-02-21T11:09:32.505Z,11.00
2019-02-21T11:12:06.091Z,13.30
2019-02-21T11:14:47.610Z,6.93
2019-02-21T11:17:16.568Z,6.23
2019-02-21T11:19:47.010Z,8.90
2019-02-21T11:22:17.429Z,10.70
2019-02-21T11:24:47.888Z,19.20
2019-02-21T11:27:18.406Z,23.77
2019-02-21T11:29:50.358Z,11.73
2019-02-21T11:32:20.879Z,11.27
2019-02-21T11:34:51.269Z,9.10
2019-02-21T11:37:21.863Z,8.83
2019-02-21T11:39:52.367Z,8.03
2019-02-21T11:42:22.962Z,8.77
2019-02-21T11:44:53.519Z,12.47
2019-02-21T11:47:26.365Z,7.67
2019-02-21T11:49:56.850Z,11.23
2019-02-21T11:52:27.540Z,9.13
2019-02-21T11:54:58.082Z,6.70
2019-02-21T11:57:28.532Z,6.40
2019-02-21T11:59:58.941Z,10.07
2019-02-21T12:02:38.590Z,12.87
2019-02-21T12:05:01.514Z,11.10
2019-02-21T12:07:32.059Z,8.23
2019-02-21T12:10:04.373Z,8.90
2019-02-21T12:12:35.199Z,15.70
2019-02-21T12:15:14.246Z,8.83
2019-02-21T12:17:44.719Z,11.18
2019-02-21T12:20:18.082Z,14.10
2019-02-21T12:22:48.575Z,6.33
2019-02-21T12:25:21.484Z,9.93
2019-02-21T12:27:51.931Z,9.13
2019-02-21T12:30:22.482Z,9.40
2019-02-21T12:32:54.554Z,12.53
2019-02-21T12:35:29.680Z,8.27
2019-02-21T12:37:58.091Z,8.53
2019-02-21T12:40:32.761Z,10.00
2019-02-21T12:43:23.548Z,13.33
2019-02-21T12:45:57.022Z,10.13
2019-02-21T12:48:29.028Z,10.23
2019-02-21T12:51:01.386Z,7.50
2019-02-21T12:53:32.129Z,9.17
2019-02-21T12:56:04.235Z,7.70
2019-02-21T12:58:34.731Z,10.27
2019-02-21T13:01:05.744Z,12.83
2019-02-21T13:03:36.334Z,8.70
2019-02-21T13:06:08.082Z,12.73
2019-02-21T13:08:41.874Z,18.23
2019-02-21T13:11:13.381Z,13.33
2019-02-21T13:13:48.316Z,8.13
2019-02-21T13:19:16.104Z,14.87
2019-02-21T13:25:17.321Z,8.93
2019-02-21T13:27:57.391Z,11.17
2019-02-21T13:30:28.945Z,12.05
2019-02-21T13:33:02.647Z,12.73
2019-02-21T13:35:35.582Z,18.67
2019-02-21T13:38:06.050Z,12.73
2019-02-21T13:40:36.835Z,13.13
2019-02-21T13:43:09.129Z,12.83
2019-02-21T13:45:42.344Z,11.93
2019-02-21T13:48:21.623Z,15.37
2019-02-21T13:50:52.102Z,9.87
2019-02-21T13:53:23.969Z,11.27
2019-02-21T13:55:58.905Z,17.13
2019-02-21T13:58:31.042Z,10.07
2019-02-21T14:01:01.518Z,9.63
2019-02-21T14:03:32.055Z,15.47
2019-02-21T14:06:05.660Z,10.67
2019-02-21T14:08:38.116Z,12.00
2019-02-21T14:11:10.644Z,10.30
2019-02-21T14:13:41.101Z,12.37
2019-02-21T14:16:11.903Z,12.00
2019-02-21T14:18:42.922Z,11.10
2019-02-21T14:21:13.424Z,7.07
2019-02-21T14:23:44.274Z,20.37
2019-02-21T14:26:14.830Z,10.33
2019-02-21T14:28:47.257Z,14.70
2019-02-21T14:31:19.450Z,11.13
2019-02-21T14:33:53.426Z,9.97
2019-02-21T14:36:30.363Z,12.53
2019-02-21T14:38:57.814Z,9.97
2019-02-21T14:41:28.259Z,14.07
2019-02-21T14:44:00.517Z,10.47
2019-02-21T14:46:31.036Z,12.70
2019-02-21T14:49:04.071Z,14.60
2019-02-21T14:51:34.534Z,13.00
2019-02-21T14:54:05.142Z,13.63
2019-02-21T14:56:35.598Z,13.57
2019-02-21T14:59:05.968Z,18.90
2019-02-21T15:01:36.623Z,11.13
2019-02-21T15:04:08.513Z,8.10
2019-02-21T15:06:39.021Z,6.97
2019-02-21T15:09:09.444Z,11.57
2019-02-21T15:11:39.891Z,11.20
2019-02-21T15:14:10.397Z,9.47
2019-02-21T15:16:40.877Z,11.60
2019-02-21T15:19:11.504Z,14.33
2019-02-21T15:21:41.897Z,9.40
2019-02-21T15:24:13.255Z,11.47
2019-02-21T15:26:46.775Z,7.50
2019-02-21T15:29:15.873Z,8.00
2019-02-21T15:31:47.088Z,9.37
2019-02-21T15:34:17.638Z,13.30
2019-02-21T15:36:52.103Z,13.90
2019-02-21T15:39:22.526Z,15.87
2019-02-21T15:41:56.460Z,11.73
2019-02-21T15:44:26.992Z,17.30
2019-02-21T15:46:57.365Z,15.00
2019-02-21T15:49:27.882Z,10.60
2019-02-21T15:51:58.297Z,11.67
2019-02-21T15:54:28.899Z,12.97
2019-02-21T15:56:59.309Z,11.23
2019-02-21T15:59:29.828Z,20.73
2019-02-21T16:02:00.287Z,17.97
2019-02-21T16:04:30.742Z,17.70
2019-02-21T16:07:01.105Z,13.50
2019-02-21T16:09:31.478Z,18.03
2019-02-21T16:12:02.139Z,23.13
2019-02-21T16:14:32.826Z,19.77
2019-02-21T16:17:03.351Z,14.60
2019-02-21T16:19:33.771Z,15.20
2019-02-21T16:22:05.229Z,14.27
2019-02-21T16:24:37.968Z,21.25
2019-02-21T16:27:23.438Z,10.47
2019-02-21T16:30:05.475Z,11.80
2019-02-21T16:32:56.081Z,11.00
2019-02-21T16:35:30.471Z,13.37
2019-02-21T16:38:01.009Z,11.57
2019-02-21T16:40:31.538Z,16.10
2019-02-21T16:43:02.316Z,12.90
2019-02-21T16:45:42.964Z,10.80
2019-02-21T16:48:05.644Z,15.10
2019-02-21T16:50:39.305Z,14.87
2019-02-21T16:53:13.189Z,14.20
2019-02-21T16:55:43.724Z,10.50
2019-02-21T16:58:18.554Z,11.53
2019-02-21T17:00:54.743Z,14.85
2019-02-21T17:03:38.837Z,18.55
2019-02-21T17:06:20.990Z,13.03
2019-02-21T17:09:24.987Z,13.90
2019-02-21T17:11:59.237Z,18.27
2019-02-21T17:27:07.268Z,21.50
2019-02-21T17:29:39.256Z,13.00
2019-02-21T17:32:10.882Z,14.27
2019-02-21T17:34:42.494Z,13.53
2019-02-21T17:37:24.405Z,13.17
2019-02-21T17:39:45.418Z,13.77
2019-02-21T17:42:16.514Z,12.30
2019-02-21T17:44:47.075Z,20.13
2019-02-21T17:47:17.586Z,14.20
2019-02-21T17:49:50.783Z,19.13
2019-02-21T17:52:27.994Z,14.83
2019-02-21T17:54:59.378Z,12.87
2019-02-21T17:57:48.212Z,16.20
2019-02-21T18:00:38.213Z,13.97
2019-02-21T18:03:14.150Z,21.67
2019-02-21T18:05:47.806Z,15.27
2019-02-21T18:08:43.771Z,18.37
2019-02-21T18:11:16.474Z,16.37
2019-02-21T18:13:48.267Z,14.77
2019-02-21T18:16:28.266Z,12.33
2019-02-21T18:19:24.327Z,16.50
2019-02-21T18:21:56.053Z,15.07
2019-02-21T18:24:38.504Z,16.43
2019-02-21T18:27:09.039Z,12.75
2019-02-21T18:29:57.761Z,12.47
2019-02-21T18:32:32.512Z,19.63
2019-02-21T18:35:06.969Z,18.97
2019-02-21T18:37:46.927Z,19.63
2019-02-21T18:40:23.070Z,15.27
2019-02-21T18:42:55.880Z,19.30
2019-02-21T18:45:29.836Z,18.90
2019-02-21T18:48:00.286Z,19.47
2019-02-21T18:50:45.996Z,18.67
2019-02-21T18:53:20.732Z,16.63
2019-02-21T18:55:55.000Z,12.03
2019-02-21T18:58:26.092Z,13.50
2019-02-21T19:01:03.852Z,11.80
2019-02-21T19:03:45.340Z,12.90
2019-02-21T19:13:14.150Z,14.65
2019-02-21T19:15:50.969Z,16.57
2019-02-21T19:18:24.278Z,18.73
2019-02-21T19:20:54.863Z,14.00
2019-02-21T19:23:28.097Z,15.53
2019-02-21T19:26:01.473Z,16.03
2019-02-21T19:28:34.594Z,14.47
2019-02-21T19:31:11.662Z,17.87
2019-02-21T19:33:47.016Z,13.03
2019-02-21T19:36:18.950Z,17.83
2019-02-21T19:38:51.759Z,15.07
2019-02-21T19:41:22.325Z,13.93
2019-02-21T19:43:52.835Z,14.73
2019-02-21T19:46:29.961Z,15.80
2019-02-21T19:49:01.900Z,13.53
2019-02-21T19:51:32.407Z,12.87
2019-02-21T19:54:06.210Z,14.35
2019-02-21T19:56:36.802Z,13.17
2019-02-21T19:59:09.082Z,14.80
2019-02-21T20:01:40.433Z,17.83
2019-02-21T20:04:13.291Z,12.73
2019-02-21T20:06:44.826Z,15.07
2019-02-21T20:09:17.110Z,15.27
2019-02-21T20:11:56.940Z,17.83
2019-02-21T20:14:30.389Z,17.77
2019-02-21T20:17:00.822Z,15.27
2019-02-21T20:19:42.212Z,14.40
2019-02-21T20:22:16.263Z,11.43
2019-02-21T20:24:48.367Z,12.20
2019-02-21T20:27:19.445Z,12.97
2019-02-21T20:29:51.818Z,12.50
2019-02-21T20:32:22.290Z,13.53
2019-02-21T20:34:52.770Z,10.77
2019-02-21T20:37:23.214Z,11.50
2019-02-21T20:39:56.990Z,13.63
2019-02-21T20:42:28.427Z,18.13
2019-02-21T20:45:00.937Z,15.07
2019-02-21T20:47:33.991Z,12.57
2019-02-21T20:50:06.016Z,19.00
2019-02-21T20:52:36.709Z,14.13
2019-02-21T20:55:08.513Z,17.27
2019-02-21T20:57:39.027Z,12.10
2019-02-21T21:00:12.390Z,13.90
2019-02-21T21:02:44.046Z,16.37
2019-02-21T21:05:17.265Z,20.30
2019-02-21T21:07:49.174Z,18.30
2019-02-21T21:10:19.762Z,21.67
2019-02-21T21:12:50.197Z,20.23
2019-02-21T21:15:20.713Z,17.93
2019-02-21T21:17:51.189Z,15.60
2019-02-21T21:20:21.791Z,14.53
2019-02-21T21:22:52.199Z,16.80
2019-02-21T21:25:24.975Z,17.40
2019-02-21T21:27:55.382Z,13.90
2019-02-21T21:30:25.774Z,12.63
2019-02-21T21:32:57.809Z,7.53
2019-02-21T21:35:28.206Z,7.40
2019-02-21T21:37:58.649Z,6.37
2019-02-21T21:40:29.109Z,8.93
2019-02-21T21:43:02.546Z,9.23
2019-02-21T21:45:34.954Z,7.67
2019-02-21T21:48:05.193Z,4.53
2019-02-21T21:50:35.808Z,8.20
2019-02-21T21:53:06.228Z,7.07
2019-02-21T21:55:36.738Z,7.70
2019-02-21T21:58:07.228Z,4.73
2019-02-21T22:00:38.801Z,6.03
2019-02-21T22:03:09.230Z,6.97
2019-02-21T22:05:42.569Z,7.70
2019-02-21T22:08:12.976Z,6.27
2019-02-21T22:10:43.470Z,8.00
2019-02-21T22:13:14.717Z,9.07
2019-02-21T22:15:45.160Z,14.00
2019-02-21T22:18:15.618Z,10.37
2019-02-21T22:20:46.037Z,12.30
2019-02-21T22:23:16.479Z,16.23
2019-02-21T22:25:47.094Z,20.23
2019-02-21T22:28:19.552Z,16.37
2019-02-21T22:30:50.171Z,14.23
2019-02-21T22:33:26.239Z,16.50
2019-02-21T22:35:56.045Z,14.13
2019-02-21T22:38:26.627Z,17.27
2019-02-21T22:40:57.043Z,23.27
2019-02-21T22:43:27.452Z,21.33
2019-02-21T22:45:59.274Z,18.53
2019-02-21T22:48:29.809Z,16.97
2019-02-21T22:51:01.876Z,20.93
2019-02-21T22:53:32.355Z,18.83
2019-02-21T22:56:02.764Z,20.67
2019-02-21T23:24:05.348Z,13.47
2019-02-21T23:26:35.775Z,10.60
2019-02-21T23:29:06.287Z,14.87
2019-02-21T23:31:36.659Z,17.17
2019-02-21T23:34:08.746Z,15.87
2019-02-21T23:36:39.169Z,24.97
2019-02-21T23:39:09.657Z,28.77
2019-02-21T23:41:40.076Z,27.13
2019-02-21T23:44:10.489Z,23.33
2019-02-21T23:46:40.931Z,21.03
2019-02-21T23:49:13.826Z,27.13
2019-02-21T23:51:43.417Z,29.63
2019-02-21T23:54:14.402Z,28.63
2019-02-21T23:56:44.866Z,25.53
2019-02-21T23:59:18.346Z,26.20
